Terminal Aerodrome Forecast
Issued by NWS

Home | Current Version | Previous Version | Text Only | Print | Product List | Glossary On
Versions: 1 2 3 4 5 6 7 8 9 10 11 12 13
444
FTUS46 KSGX 261736
TAFSNA
TAF
KSNA 261736Z 2618/2718 22006KT P6SM BKN250
     FM262000 23010KT P6SM SCT250
     FM270300 VRB06KT P6SM SCT015 SCT250=

USA.gov is the U.S. government's official web portal to all federal, state and local government web resources and services.